Cove Spring, Texas
Current Conditions -  °F | °C
As of 4:55 PM on Friday 31 Oct 2014 (Local Time) from KJSO Reporting Station
Clear Clear  
Wind Chill: 66°   Ceiling: Unl
Heat Index: 66°   Visibility: 10mi
Dew Point: 41°   Wind: 7mph
Humidity: 40%   Direction: 360°N
Pressure: 30.25"   Gusts: NA
Location:  31.9649°N, 95.3036°W
Report Text: KJSO 312155Z AUTO 36006KT 10SM CLR 18/05 A3025 RMK AO2 T01910050
Loading
Personal Weather Stations






























Interactive Weather Map
Tropical Storm Tracking
New forecast layout! Learn more

10-Day Weather Forecast

Advertisements
Track Severe Weather on mobile